Airfield :
LOGIN :

Register | Disclaimer

   EN    FR    IT 

 










Legend :    VFR   Marginal VFR   IFR   Intensive IFR   Very Intensive IFR
Visi :
Ceiling :
>= 8 km
>= 3000ft
5 to 8 km
1000 to 3000 ft
1500m to 5 km
500 to 1000 ft
800 to 1500m
200 to 500 ft
< 800m
< 200 ft
Symbols :   Thunderstorms  Fog  Heavy snow  Heavy precipitations  Wind > 20 kt
SIGMETs :     Misc.  Thunderstorms  Icing  Turbulence  Mountain Waves  Volcanic Ashes






- Airport Elevation : 140 ft


ESTL - Ljungbyhed

CURRENT METAR :
  • 261820Z AUTO 25005KT 9999 NCD 15/10 Q1034

EXPIRED METARs :
  • 261750Z AUTO 30007KT 9999 NCD 17/08 Q1034
  • 261720Z AUTO 32009KT 9999 FEW035/// 18/09 Q1034
  • 261650Z AUTO 29010KT 9999 SCT039/// 19/09 Q1034
  • 261620Z AUTO 24007KT 9999 FEW042/// 19/09 Q1034
  • 261550Z AUTO 27010KT 9999 FEW041/// 19/09 Q1034

Expired Forecast.



MET'MAP, your aeronautical weather chart ! - Copyright ORBIFLY December 2007 - Disclaimer

ORBIFLY MET'MAP TEAM :

Programming & Development : Alexandra Zaïnal
Concept & original design : Baudouin d'Aumeries
Assistance for programming : Marc-Olivier Méhu
Technical & hardware support : Manuel Goepfert

Contact : metmap@orbifly.com




SOURCES & CREDITS :

   NOAA